createdAt,value
2023-04-23T00:10:04.730Z,90.8
2023-04-23T00:15:15.154Z,90.7
2023-04-23T00:19:57.464Z,91.0
2023-04-23T00:24:54.002Z,91.0
2023-04-23T00:30:10.609Z,90.8
2023-04-23T00:40:23.371Z,91.2
2023-04-23T00:45:29.800Z,90.8
2023-04-23T00:50:36.177Z,91.0
2023-04-23T00:55:46.534Z,91.0
2023-04-23T01:00:49.053Z,90.9
2023-04-23T01:05:55.527Z,91.0
2023-04-23T01:11:25.978Z,90.9
2023-04-23T01:16:08.312Z,91.0
2023-04-23T01:21:14.864Z,90.8
2023-04-23T01:26:20.090Z,90.8
2023-04-23T01:31:51.752Z,90.9
2023-04-23T01:36:24.071Z,90.9
2023-04-23T01:41:40.626Z,90.9
2023-04-23T01:46:47.112Z,90.7
2023-04-23T01:51:53.559Z,90.8
2023-04-23T01:56:59.915Z,90.8
2023-04-23T02:02:20.362Z,90.7
2023-04-23T02:07:02.693Z,91.2
2023-04-23T02:12:19.055Z,91.1
2023-04-23T02:17:25.421Z,91.0
2023-04-23T02:22:21.807Z,91.0
2023-04-23T02:27:38.297Z,91.1
2023-04-23T02:32:44.711Z,91.0
2023-04-23T02:42:57.454Z,90.8
2023-04-23T02:47:53.956Z,90.9
2023-04-23T02:53:10.233Z,90.8
2023-04-23T02:58:06.574Z,90.7
2023-04-23T03:03:43.526Z,90.7
2023-04-23T03:08:53.649Z,90.6
2023-04-23T03:23:48.712Z,90.5
2023-04-23T03:28:55.138Z,90.4
2023-04-23T03:34:01.481Z,90.5
2023-04-23T03:39:07.999Z,90.4
2023-04-23T03:44:04.468Z,90.3
2023-04-23T03:49:20.967Z,90.4
2023-04-23T03:59:35.368Z,90.4
2023-04-23T04:04:42.276Z,90.4
2023-04-23T04:10:27.212Z,90.4
2023-04-23T04:15:13.616Z,90.4
2023-04-23T04:19:50.914Z,90.4
2023-04-23T04:25:07.334Z,90.4
2023-04-23T04:30:13.797Z,90.4
2023-04-23T04:35:20.288Z,90.3
2023-04-23T04:45:32.921Z,90.3
2023-04-23T04:50:39.342Z,90.4
2023-04-23T04:55:45.696Z,90.4
2023-04-23T05:00:52.209Z,90.4
2023-04-23T05:05:58.547Z,90.4
2023-04-23T05:11:04.885Z,90.5
2023-04-23T05:16:31.907Z,90.4
2023-04-23T05:22:02.329Z,90.4
2023-04-23T05:26:24.619Z,90.4
2023-04-23T05:31:21.196Z,90.4
2023-04-23T05:36:37.429Z,90.3
2023-04-23T05:42:07.966Z,90.3
2023-04-23T05:46:50.380Z,90.3
2023-04-23T05:51:56.749Z,90.3
2023-04-23T05:57:03.146Z,90.4
2023-04-23T06:01:59.575Z,90.3
2023-04-23T06:07:05.923Z,90.4
2023-04-23T06:12:22.307Z,90.4
2023-04-23T06:17:48.780Z,90.6
2023-04-23T06:22:35.055Z,91.2
2023-04-23T06:27:41.454Z,91.1
2023-04-23T06:33:51.957Z,91.2
2023-04-23T06:38:18.235Z,91.4
2023-04-23T06:43:20.615Z,91.8
2023-04-23T06:48:27.033Z,92.3
2023-04-23T06:53:33.452Z,92.6
2023-04-23T06:59:03.849Z,92.9
2023-04-23T07:03:26.306Z,93.3
2023-04-23T07:08:52.770Z,93.7
2023-04-23T07:13:39.124Z,93.6
2023-04-23T07:19:05.532Z,93.9
2023-04-23T07:23:51.880Z,93.9
2023-04-23T07:29:18.440Z,94.5
2023-04-23T07:34:32.476Z,94.5
2023-04-23T07:39:04.829Z,95.3
2023-04-23T07:44:41.285Z,95.6
2023-04-23T07:49:27.640Z,95.3
2023-04-23T07:54:33.992Z,94.5
2023-04-23T08:00:04.442Z,93.6
2023-04-23T08:04:47.018Z,93.1
2023-04-23T08:09:53.266Z,92.5
2023-04-23T08:14:59.680Z,91.9
2023-04-23T08:20:06.075Z,91.4
2023-04-23T08:25:02.421Z,90.8
2023-04-23T08:35:25.203Z,90.0
2023-04-23T08:40:31.569Z,89.1
2023-04-23T08:45:28.046Z,87.5
2023-04-23T08:51:36.686Z,86.8
2023-04-23T08:55:50.941Z,85.4
2023-04-23T09:01:21.457Z,85.3
2023-04-23T09:06:03.726Z,83.6
2023-04-23T09:11:10.133Z,83.6
2023-04-23T09:21:12.859Z,81.6
2023-04-23T09:26:19.363Z,80.7
2023-04-23T09:36:42.234Z,78.3
2023-04-23T09:41:48.668Z,78.9
2023-04-23T09:47:53.204Z,76.0
2023-04-23T09:52:01.420Z,73.5
2023-04-23T09:57:28.069Z,72.9
2023-04-23T10:02:38.584Z,72.5
2023-04-23T10:07:20.974Z,74.6
2023-04-23T10:12:46.612Z,74.4
2023-04-23T10:17:32.878Z,73.3
2023-04-23T10:22:40.225Z,73.3
2023-04-23T10:32:53.114Z,72.0
2023-04-23T10:37:59.502Z,71.7
2023-04-23T10:43:05.956Z,71.3
2023-04-23T10:48:12.433Z,69.2
2023-04-23T10:53:18.737Z,69.3
2023-04-23T10:58:25.101Z,69.1
2023-04-23T11:03:31.747Z,67.9
2023-04-23T11:08:37.861Z,68.4
2023-04-23T11:13:44.374Z,68.0
2023-04-23T11:18:50.769Z,67.7
2023-04-23T11:23:57.243Z,68.1
2023-04-23T11:29:03.640Z,68.3
2023-04-23T11:34:34.150Z,68.9
2023-04-23T11:39:16.447Z,69.3
2023-04-23T11:45:06.924Z,69.5
2023-04-23T11:49:29.331Z,69.6
2023-04-23T11:54:35.696Z,70.6
2023-04-23T11:59:42.493Z,70.9
2023-04-23T12:04:48.501Z,70.8
2023-04-23T12:09:54.957Z,71.0
2023-04-23T12:14:51.283Z,71.1
2023-04-23T12:20:07.699Z,71.5
2023-04-23T12:25:14.133Z,71.4
2023-04-23T12:30:40.524Z,71.1
2023-04-23T12:46:03.875Z,71.8
2023-04-23T12:50:46.220Z,71.4
2023-04-23T12:55:52.634Z,72.0
2023-04-23T13:00:58.997Z,72.9
2023-04-23T13:06:05.363Z,73.8
2023-04-23T13:11:45.828Z,73.5
2023-04-23T13:16:18.277Z,73.8
2023-04-23T13:27:05.153Z,74.9
2023-04-23T13:32:01.610Z,75.5
2023-04-23T13:36:43.816Z,76.3
2023-04-23T13:42:14.351Z,75.6
2023-04-23T13:47:40.884Z,75.9
2023-04-23T13:57:09.557Z,75.7
2023-04-23T14:02:15.986Z,75.4
2023-04-23T14:07:22.334Z,75.2
2023-04-23T14:12:48.748Z,76.2
2023-04-23T14:17:35.137Z,75.5
2023-04-23T14:22:55.520Z,75.8
2023-04-23T14:28:07.893Z,76.1
2023-04-23T14:32:54.282Z,75.8
2023-04-23T14:38:00.612Z,76.1
2023-04-23T14:44:27.302Z,75.5
2023-04-23T14:48:33.604Z,72.1
2023-04-23T14:58:26.297Z,72.6
2023-04-23T15:08:39.190Z,73.5
2023-04-23T15:14:09.591Z,74.4
2023-04-23T15:18:50.927Z,74.0
2023-04-23T15:24:18.360Z,74.0
2023-04-23T15:29:04.697Z,74.3
2023-04-23T15:39:17.478Z,75.1
2023-04-23T15:44:23.948Z,75.3
2023-04-23T15:49:30.329Z,75.5
2023-04-23T15:54:36.778Z,76.1
2023-04-23T16:00:07.239Z,76.4
2023-04-23T16:04:49.595Z,76.6
2023-04-23T16:09:45.925Z,76.8
2023-04-23T16:15:02.329Z,76.9
2023-04-23T16:20:08.737Z,76.4
2023-04-23T16:30:11.591Z,77.1
2023-04-23T16:35:52.100Z,77.3
2023-04-23T16:40:24.358Z,77.6
2023-04-23T16:46:04.803Z,77.7
2023-04-23T16:50:37.128Z,77.9
2023-04-23T16:55:53.874Z,77.7
2023-04-23T17:01:00.425Z,77.5
2023-04-23T17:06:06.809Z,77.1
2023-04-23T17:11:13.206Z,78.2
2023-04-23T17:16:19.716Z,77.8
2023-04-23T17:21:25.983Z,78.2
2023-04-23T17:26:32.488Z,78.6
2023-04-23T17:36:46.537Z,80.1
2023-04-23T17:41:52.962Z,80.4
2023-04-23T17:46:59.344Z,80.8
2023-04-23T17:52:05.739Z,81.4
2023-04-23T17:57:12.129Z,81.9
2023-04-23T18:02:18.620Z,81.8
2023-04-23T18:07:24.873Z,81.9
2023-04-23T18:22:45.258Z,82.5
2023-04-23T18:27:41.650Z,82.7
2023-04-23T18:32:48.097Z,82.7
2023-04-23T18:38:04.432Z,83.0
2023-04-23T18:43:10.864Z,83.2
2023-04-23T18:48:37.276Z,83.2
2023-04-23T18:53:52.311Z,83.4
2023-04-23T18:58:34.706Z,83.4
2023-04-23T19:03:41.164Z,83.6
2023-04-23T19:08:47.538Z,83.6
2023-04-23T19:13:53.957Z,84.0
2023-04-23T19:19:20.368Z,84.1
2023-04-23T19:23:56.702Z,84.1
2023-04-23T19:29:03.112Z,83.9
2023-04-23T19:34:19.497Z,84.2
2023-04-23T19:39:25.889Z,84.2
2023-04-23T19:44:22.266Z,84.1
2023-04-23T19:50:02.853Z,84.2
2023-04-23T19:55:09.239Z,84.4
2023-04-23T19:59:51.622Z,84.5
2023-04-23T20:04:57.961Z,84.5
2023-04-23T20:10:04.349Z,84.3
2023-04-23T20:15:10.747Z,84.8
2023-04-23T20:20:17.221Z,84.8
2023-04-23T20:25:25.598Z,85.0
2023-04-23T20:30:30.233Z,85.0
2023-04-23T20:40:42.961Z,85.4
2023-04-23T20:46:28.466Z,85.4
2023-04-23T20:50:54.933Z,85.2
2023-04-23T20:56:02.323Z,85.6
2023-04-23T21:01:08.790Z,85.7
2023-04-23T21:11:35.543Z,86.2
2023-04-23T21:16:17.901Z,86.3
2023-04-23T21:21:36.448Z,87.3
2023-04-23T21:26:32.817Z,87.5
2023-04-23T21:32:09.254Z,88.5
2023-04-23T21:36:55.606Z,88.8
2023-04-23T21:42:01.986Z,89.2
2023-04-23T21:47:46.529Z,89.0
2023-04-23T22:02:27.779Z,88.2
2023-04-23T22:07:38.030Z,87.9
2023-04-23T22:13:19.830Z,87.7
2023-04-23T22:17:35.841Z,88.0
2023-04-23T22:28:37.701Z,89.4
2023-04-23T22:33:06.049Z,90.0
2023-04-23T22:38:12.351Z,90.2
2023-04-23T22:43:32.747Z,90.5
2023-04-23T22:48:25.247Z,90.5
2023-04-23T22:54:15.698Z,90.6
2023-04-23T22:58:37.987Z,90.7
2023-04-23T23:03:34.507Z,91.0
2023-04-23T23:08:50.781Z,91.2
2023-04-23T23:13:57.163Z,91.2
2023-04-23T23:19:03.590Z,91.4
2023-04-23T23:24:09.949Z,91.5
2023-04-23T23:30:12.455Z,91.4
2023-04-23T23:34:22.763Z,91.6
2023-04-23T23:39:53.155Z,92.3
2023-04-23T23:44:25.468Z,92.2
2023-04-23T23:49:42.207Z,92.3
2023-04-23T23:55:12.295Z,92.4
